Sloman Herakles — V2FY4 — position and weather

sailwx.info

Track history (hours):
 
Tides and Currents Weather Stations Pressure Air Temp Water Temp Dewpoint Dewpoint Depression Visibility Wind Speed Wind Dir Waves Ship Positions

Sloman Herakles

Last reported at 2015-Aug-03 12:33 UTC. Time now 2015-Aug-04 15:46 UTC.
Position N 43°29' W 079°36'.

Length 145 m; draft 6.5 m.

Type: Tanker. MMSI: 305851000.

Date/timePositionNaut miles runAvg speedWind from/ knotsBaromVisibWave heightAir tempDewpointWater temp
2015-Aug-03 12:33N 43°29' W 079°36'2 0.1
2015-Aug-02 21:14N 43°29' W 079°34'6 9.4
2015-Aug-02 20:33N 43°29' W 079°25'1313.3
2015-Aug-02 19:33N 43°31' W 079°07'242 9.3
2015-Aug-01 17:33N 45°14' W 074°01'6 5.8
2015-Aug-01 16:34N 45°18' W 073°56'1 1.0
2015-Aug-01 15:34N 45°19' W 073°55'6 5.4
2015-Aug-01 14:31N 45°23' W 073°49'7 7.0
2015-Aug-01 13:33N 45°25' W 073°40'4 4.1
2015-Aug-01 12:32N 45°24' W 073°34'  
2015-Jul-29 20:13N 45°28' W 073°30'4 6.2
2015-Jul-29 19:33N 45°24' W 073°32'2 2.1
2015-Jul-29 18:34N 45°24' W 073°35'3 3.3
2015-Jul-29 17:32N 45°25' W 073°40'7 7.2
2015-Jul-29 16:33N 45°22' W 073°49'6 5.7
2015-Jul-29 15:33N 45°19' W 073°55'3 2.6
2015-Jul-29 14:31N 45°16' W 073°57'11211.2
2015-Jul-29 04:30N 44°14' W 076°09'0 0.1
2015-Jul-29 03:34N 44°14' W 076°08'0 0.0
2015-Jul-29 02:34N 44°14' W 076°08'0 0.0
2015-Jul-29 01:34N 44°14' W 076°08'10 9.9
2015-Jul-29 00:33N 44°08' W 076°20'1312.5
2015-Jul-28 23:33N 43°58' W 076°30'7214.1
2015-Jul-28 18:28N 43°36' W 078°05'2014.8
2015-Jul-28 17:05N 43°32' W 078°33'814.6
2015-Jul-28 16:33N 43°31' W 078°43'1414.5
2015-Jul-28 15:33N 43°28' W 079°03'1414.4
2015-Jul-28 14:33N 43°25' W 079°22'15 0.4
2015-Jul-26 22:26N 43°22' W 079°43'2 2.2
2015-Jul-26 21:33N 43°21' W 079°41'1110.8
2015-Jul-26 20:33N 43°23' W 079°26'1413.5
2015-Jul-26 19:33N 43°26' W 079°08'1413.5
2015-Jul-26 18:33N 43°29' W 078°50'11419.0
2015-Jul-26 12:34N 44°08' W 076°22'0 0.0
2015-Jul-26 11:34N 44°08' W 076°22'0 0.0
2015-Jul-26 10:34N 44°08' W 076°22'119 7.3
2015-Jul-25 18:18N 45°13' W 074°02'6 7.8
2015-Jul-25 17:32N 45°18' W 073°56'1 1.3
2015-Jul-25 16:33N 45°19' W 073°55'0 0.4
2015-Jul-25 15:34N 45°19' W 073°55'7 7.0
2015-Jul-25 14:33N 45°24' W 073°47'8 7.2
2015-Jul-25 13:25N 45°24' W 073°36'  
Track history (hours):
 
Tides and Currents Weather Stations Pressure Air Temp Water Temp Dewpoint Dewpoint Depression Visibility Wind Speed Wind Dir Waves Ship Positions

Sloman Herakles

Last reported at 2015-Aug-03 12:33 UTC. Time now 2015-Aug-04 15:46 UTC.
Position N 43°29' W 079°36'.

Length 145 m; draft 6.5 m.

Type: Tanker. MMSI: 305851000.

Date/timePositionNaut miles runAvg speedWind from/ knotsBaromVisibWave heightAir tempDewpointWater temp
2015-Aug-03 12:33N 43°29' W 079°36'2 0.1
2015-Aug-02 21:14N 43°29' W 079°34'6 9.4
2015-Aug-02 20:33N 43°29' W 079°25'1313.3
2015-Aug-02 19:33N 43°31' W 079°07'242 9.3
2015-Aug-01 17:33N 45°14' W 074°01'6 5.8
2015-Aug-01 16:34N 45°18' W 073°56'1 1.0
2015-Aug-01 15:34N 45°19' W 073°55'6 5.4
2015-Aug-01 14:31N 45°23' W 073°49'7 7.0
2015-Aug-01 13:33N 45°25' W 073°40'4 4.1
2015-Aug-01 12:32N 45°24' W 073°34'  
2015-Jul-29 20:13N 45°28' W 073°30'4 6.2
2015-Jul-29 19:33N 45°24' W 073°32'2 2.1
2015-Jul-29 18:34N 45°24' W 073°35'3 3.3
2015-Jul-29 17:32N 45°25' W 073°40'7 7.2
2015-Jul-29 16:33N 45°22' W 073°49'6 5.7
2015-Jul-29 15:33N 45°19' W 073°55'3 2.6
2015-Jul-29 14:31N 45°16' W 073°57'11211.2
2015-Jul-29 04:30N 44°14' W 076°09'0 0.1
2015-Jul-29 03:34N 44°14' W 076°08'0 0.0
2015-Jul-29 02:34N 44°14' W 076°08'0 0.0
2015-Jul-29 01:34N 44°14' W 076°08'10 9.9
2015-Jul-29 00:33N 44°08' W 076°20'1312.5
2015-Jul-28 23:33N 43°58' W 076°30'7214.1
2015-Jul-28 18:28N 43°36' W 078°05'2014.8
2015-Jul-28 17:05N 43°32' W 078°33'814.6
2015-Jul-28 16:33N 43°31' W 078°43'1414.5
2015-Jul-28 15:33N 43°28' W 079°03'1414.4
2015-Jul-28 14:33N 43°25' W 079°22'15 0.4
2015-Jul-26 22:26N 43°22' W 079°43'2 2.2
2015-Jul-26 21:33N 43°21' W 079°41'1110.8
2015-Jul-26 20:33N 43°23' W 079°26'1413.5
2015-Jul-26 19:33N 43°26' W 079°08'1413.5
2015-Jul-26 18:33N 43°29' W 078°50'11419.0
2015-Jul-26 12:34N 44°08' W 076°22'0 0.0
2015-Jul-26 11:34N 44°08' W 076°22'0 0.0
2015-Jul-26 10:34N 44°08' W 076°22'119 7.3
2015-Jul-25 18:18N 45°13' W 074°02'6 7.8
2015-Jul-25 17:32N 45°18' W 073°56'1 1.3
2015-Jul-25 16:33N 45°19' W 073°55'0 0.4
2015-Jul-25 15:34N 45°19' W 073°55'7 7.0
2015-Jul-25 14:33N 45°24' W 073°47'8 7.2
2015-Jul-25 13:25N 45°24' W 073°36'  

Dump ship's entire track history